createdAt,value
2022-09-23T00:00:00.925Z,2.20
2022-09-23T00:01:12.029Z,2.00
2022-09-23T00:02:19.602Z,1.90
2022-09-23T00:03:27.241Z,2.20
2022-09-23T00:04:34.714Z,2.10
2022-09-23T00:05:42.344Z,2.20
2022-09-23T00:06:53.298Z,2.20
2022-09-23T00:08:03.673Z,1.90
2022-09-23T00:09:15.493Z,2.00
2022-09-23T00:10:24.097Z,2.00
2022-09-23T00:11:31.947Z,2.20
2022-09-23T00:12:39.352Z,2.00
2022-09-23T00:13:49.768Z,2.00
2022-09-23T00:14:57.195Z,2.00
2022-09-23T00:16:06.329Z,2.00
2022-09-23T00:17:14.032Z,1.90
2022-09-23T00:18:22.534Z,2.00
2022-09-23T00:19:30.783Z,1.70
2022-09-23T00:20:38.424Z,2.30
2022-09-23T00:21:48.002Z,1.60
2022-09-23T00:22:55.603Z,1.90
2022-09-23T00:24:03.750Z,1.80
2022-09-23T00:25:12.096Z,2.00
2022-09-23T00:26:20.226Z,1.90
2022-09-23T00:27:27.964Z,1.90
2022-09-23T00:28:35.656Z,1.80
2022-09-23T00:29:47.580Z,1.60
2022-09-23T00:30:55.079Z,1.80
2022-09-23T00:32:02.574Z,1.80
2022-09-23T00:33:11.892Z,1.70
2022-09-23T00:34:19.834Z,1.90
2022-09-23T00:35:27.243Z,1.70
2022-09-23T00:36:34.514Z,2.00
2022-09-23T00:37:41.894Z,2.00
2022-09-23T00:38:50.931Z,1.60
2022-09-23T00:39:58.527Z,1.70
2022-09-23T00:41:05.843Z,1.60
2022-09-23T00:42:17.596Z,1.80
2022-09-23T00:43:47.290Z,1.70
2022-09-23T00:45:00.579Z,1.70
2022-09-23T00:46:11.737Z,1.70
2022-09-23T00:47:24.226Z,1.80
2022-09-23T00:48:31.633Z,1.70
2022-09-23T00:49:39.009Z,1.80
2022-09-23T00:50:47.397Z,2.00
2022-09-23T00:52:02.536Z,1.80
2022-09-23T00:53:11.009Z,1.70
2022-09-23T00:54:18.241Z,1.90
2022-09-23T00:55:32.866Z,1.70
2022-09-23T00:56:41.960Z,1.70
2022-09-23T00:57:50.103Z,2.20
2022-09-23T00:58:57.271Z,1.80
2022-09-23T01:00:05.377Z,1.90
2022-09-23T01:01:15.129Z,1.60
2022-09-23T01:02:25.776Z,1.60
2022-09-23T01:03:33.319Z,1.70
2022-09-23T01:04:40.659Z,1.80
2022-09-23T01:05:47.924Z,1.60
2022-09-23T01:06:55.070Z,1.60
2022-09-23T01:08:03.008Z,1.60
2022-09-23T01:09:10.289Z,2.10
2022-09-23T01:10:17.656Z,1.80
2022-09-23T01:11:28.404Z,1.60
2022-09-23T01:13:01.396Z,1.40
2022-09-23T01:14:52.927Z,1.50
2022-09-23T01:16:10.524Z,1.50
2022-09-23T01:17:34.316Z,1.50
2022-09-23T01:19:05.256Z,1.50
2022-09-23T01:20:27.233Z,1.80
2022-09-23T01:21:46.981Z,1.50
2022-09-23T01:23:13.700Z,1.80
2022-09-23T01:24:33.592Z,1.80
2022-09-23T01:26:05.576Z,1.70
2022-09-23T01:27:28.773Z,1.70
2022-09-23T01:28:45.360Z,1.60
2022-09-23T01:30:08.240Z,1.50
2022-09-23T01:31:20.170Z,1.70
2022-09-23T01:32:37.068Z,1.80
2022-09-23T01:34:07.650Z,1.40
2022-09-23T01:35:31.887Z,1.70
2022-09-23T01:37:02.775Z,1.70
2022-09-23T01:38:42.066Z,1.30
2022-09-23T01:40:17.718Z,1.70
2022-09-23T01:41:47.438Z,1.60
2022-09-23T01:43:38.675Z,2.10
2022-09-23T01:44:49.606Z,2.10
2022-09-23T01:45:57.917Z,1.90
2022-09-23T01:47:12.321Z,1.80
2022-09-23T01:49:13.036Z,1.50
2022-09-23T01:50:52.869Z,1.60
2022-09-23T01:52:12.175Z,1.80
2022-09-23T01:53:38.686Z,1.50
2022-09-23T01:55:13.296Z,1.60
2022-09-23T01:56:31.263Z,1.60
2022-09-23T01:57:50.198Z,1.70
2022-09-23T01:59:10.765Z,1.60
2022-09-23T02:00:19.271Z,1.70
2022-09-23T02:01:40.794Z,1.50
2022-09-23T02:02:54.005Z,1.40
2022-09-23T02:04:10.170Z,1.70
2022-09-23T02:05:23.703Z,1.80
2022-09-23T02:06:49.430Z,1.60
2022-09-23T02:08:03.321Z,1.70
2022-09-23T02:09:22.031Z,1.70
2022-09-23T02:10:38.865Z,1.90
2022-09-23T02:11:47.639Z,1.80
2022-09-23T02:12:58.809Z,1.80
2022-09-23T02:14:31.353Z,1.70
2022-09-23T02:15:41.826Z,1.60
2022-09-23T02:16:53.627Z,1.70
2022-09-23T02:18:24.257Z,1.90
2022-09-23T02:20:04.181Z,1.50
2022-09-23T02:21:11.253Z,1.70
2022-09-23T02:22:37.488Z,1.90
2022-09-23T02:23:47.975Z,1.70
2022-09-23T02:24:55.958Z,1.60
2022-09-23T02:26:21.844Z,1.70
2022-09-23T02:27:29.628Z,1.60
2022-09-23T02:28:52.810Z,1.80
2022-09-23T02:30:36.339Z,1.70
2022-09-23T02:31:51.207Z,1.70
2022-09-23T02:33:05.954Z,1.90
2022-09-23T02:34:32.750Z,1.70
2022-09-23T02:36:22.135Z,1.80
2022-09-23T02:37:48.966Z,1.50
2022-09-23T02:38:58.776Z,1.60
2022-09-23T02:40:32.589Z,2.10
2022-09-23T02:41:51.926Z,2.00
2022-09-23T02:43:21.611Z,1.90
2022-09-23T02:44:30.811Z,1.80
2022-09-23T02:45:42.367Z,1.80
2022-09-23T02:46:50.046Z,1.40
2022-09-23T02:48:01.857Z,1.70
2022-09-23T02:49:16.251Z,2.00
2022-09-23T02:50:24.349Z,1.90
2022-09-23T02:51:40.464Z,1.90
2022-09-23T02:52:49.912Z,1.90
2022-09-23T02:53:59.461Z,1.80
2022-09-23T02:55:08.280Z,1.70
2022-09-23T02:56:20.994Z,1.70
2022-09-23T02:57:28.666Z,2.00
2022-09-23T02:58:36.694Z,1.80
2022-09-23T02:59:44.079Z,1.90
2022-09-23T03:01:10.319Z,2.00
2022-09-23T03:02:18.757Z,1.80
2022-09-23T03:03:35.279Z,2.00
2022-09-23T03:05:17.206Z,2.00
2022-09-23T03:06:34.618Z,2.00
2022-09-23T03:08:03.834Z,1.70
2022-09-23T03:09:39.872Z,1.60
2022-09-23T03:10:58.911Z,1.60
2022-09-23T03:12:42.436Z,2.20
2022-09-23T03:14:06.503Z,1.70
2022-09-23T03:15:29.597Z,1.80
2022-09-23T03:16:55.094Z,1.90
2022-09-23T03:18:10.534Z,1.80
2022-09-23T03:19:37.168Z,1.70
2022-09-23T03:20:51.884Z,1.60
2022-09-23T03:22:16.598Z,2.10
2022-09-23T03:23:26.447Z,1.80
2022-09-23T03:24:33.990Z,1.80
2022-09-23T03:25:42.146Z,1.60
2022-09-23T03:26:49.663Z,2.10
2022-09-23T03:28:02.042Z,2.00
2022-09-23T03:29:13.809Z,2.00
2022-09-23T03:30:23.300Z,1.70
2022-09-23T03:31:31.538Z,2.10
2022-09-23T03:32:39.820Z,1.80
2022-09-23T03:33:54.409Z,2.00
2022-09-23T03:35:03.868Z,1.80
2022-09-23T03:36:30.803Z,2.50
2022-09-23T03:38:04.217Z,2.20
2022-09-23T03:39:14.435Z,1.90
2022-09-23T03:40:28.452Z,1.90
2022-09-23T03:41:42.098Z,1.90
2022-09-23T03:42:52.616Z,2.10
2022-09-23T03:44:00.252Z,1.90
2022-09-23T03:45:10.863Z,1.90
2022-09-23T03:46:21.169Z,1.80
2022-09-23T03:47:30.995Z,2.10
2022-09-23T03:48:40.845Z,2.10
2022-09-23T03:49:50.494Z,2.10
2022-09-23T03:50:57.947Z,1.90
2022-09-23T03:52:05.577Z,1.90
2022-09-23T03:53:15.961Z,1.80
2022-09-23T03:54:23.480Z,2.00
2022-09-23T03:55:30.965Z,2.10
2022-09-23T03:56:38.958Z,1.80
2022-09-23T03:57:46.632Z,1.90
2022-09-23T03:58:55.325Z,1.90
2022-09-23T04:00:02.718Z,1.90
2022-09-23T04:01:18.970Z,2.10
2022-09-23T04:02:28.610Z,2.00
2022-09-23T04:03:37.939Z,2.00
2022-09-23T04:04:45.928Z,1.70
2022-09-23T04:05:53.639Z,1.90
2022-09-23T04:07:01.121Z,1.80
2022-09-23T04:08:08.591Z,1.90
2022-09-23T04:09:15.877Z,1.90
2022-09-23T04:10:23.130Z,1.80
2022-09-23T04:11:30.842Z,1.80
2022-09-23T04:12:38.316Z,1.90
2022-09-23T04:13:45.577Z,2.10
2022-09-23T04:14:52.728Z,1.80
2022-09-23T04:16:00.062Z,2.10
2022-09-23T04:17:07.363Z,2.10
2022-09-23T04:18:15.022Z,1.90
2022-09-23T04:19:22.400Z,2.20
2022-09-23T04:20:30.274Z,2.10
2022-09-23T04:21:37.858Z,2.10
2022-09-23T04:22:45.335Z,1.70
2022-09-23T04:23:52.895Z,2.00
2022-09-23T04:25:03.571Z,2.40
2022-09-23T04:26:11.239Z,2.30
2022-09-23T04:27:19.232Z,1.80
2022-09-23T04:28:26.712Z,1.60
2022-09-23T04:29:34.068Z,1.90
2022-09-23T04:30:45.188Z,2.20
2022-09-23T04:31:52.702Z,2.40
2022-09-23T04:33:00.225Z,2.30
2022-09-23T04:34:07.302Z,2.00
2022-09-23T04:35:14.932Z,2.00
2022-09-23T04:36:22.621Z,1.70
2022-09-23T04:37:30.691Z,1.80
2022-09-23T04:38:37.867Z,2.50
2022-09-23T04:39:45.442Z,2.20
2022-09-23T04:40:52.859Z,1.80
2022-09-23T04:42:01.188Z,2.00
2022-09-23T04:43:12.861Z,2.40
2022-09-23T04:44:22.624Z,2.20
2022-09-23T04:45:31.538Z,2.20
2022-09-23T04:46:40.585Z,2.30
2022-09-23T04:47:48.585Z,1.90
2022-09-23T04:48:55.954Z,2.00
2022-09-23T04:50:03.268Z,2.00
2022-09-23T04:51:18.348Z,2.40
2022-09-23T04:52:25.713Z,2.40
2022-09-23T04:53:33.263Z,2.30
2022-09-23T04:54:40.846Z,2.30
2022-09-23T04:55:53.838Z,2.60
2022-09-23T04:57:03.040Z,2.00
2022-09-23T04:58:11.250Z,2.90
2022-09-23T04:59:18.694Z,2.00
2022-09-23T05:00:27.981Z,2.40
2022-09-23T05:01:36.645Z,2.70
2022-09-23T05:02:47.280Z,2.50
2022-09-23T05:03:55.557Z,2.60
2022-09-23T05:05:02.673Z,2.50
2022-09-23T05:06:10.300Z,2.50
2022-09-23T05:07:20.391Z,2.20
2022-09-23T05:08:27.961Z,2.40
2022-09-23T05:09:35.171Z,2.30
2022-09-23T05:10:43.091Z,2.60
2022-09-23T05:11:50.163Z,2.40
2022-09-23T05:12:59.042Z,2.10
2022-09-23T05:14:06.645Z,2.40
2022-09-23T05:15:16.135Z,2.40
2022-09-23T05:16:27.059Z,2.40
2022-09-23T05:17:35.020Z,2.00
2022-09-23T05:18:44.109Z,2.10
2022-09-23T05:19:51.746Z,2.20
2022-09-23T05:20:58.841Z,2.10
2022-09-23T05:22:07.457Z,2.30
2022-09-23T05:23:14.805Z,2.50
2022-09-23T05:24:22.668Z,2.20
2022-09-23T05:25:29.947Z,2.50
2022-09-23T05:26:37.135Z,2.50
2022-09-23T05:27:44.410Z,2.00
2022-09-23T05:28:52.152Z,3.00
2022-09-23T05:29:59.875Z,2.20
2022-09-23T05:31:08.251Z,2.70
2022-09-23T05:32:16.895Z,2.40
2022-09-23T05:33:24.479Z,2.20
2022-09-23T05:34:32.049Z,2.40
2022-09-23T05:35:39.492Z,2.30
2022-09-23T05:36:47.159Z,2.30
2022-09-23T05:37:54.251Z,2.60
2022-09-23T05:39:01.431Z,2.60
2022-09-23T05:40:09.182Z,2.50
2022-09-23T05:41:16.598Z,2.60
2022-09-23T05:42:26.994Z,3.30
2022-09-23T05:43:34.316Z,2.40
2022-09-23T05:44:41.649Z,2.50
2022-09-23T05:45:48.930Z,2.60
2022-09-23T05:46:56.664Z,2.50
2022-09-23T05:48:04.138Z,2.60
2022-09-23T05:49:11.554Z,3.00
2022-09-23T05:50:18.891Z,2.60
2022-09-23T05:51:30.741Z,2.60
2022-09-23T05:52:38.900Z,2.50
2022-09-23T05:53:48.967Z,2.50
2022-09-23T05:54:56.294Z,2.70
2022-09-23T05:57:11.829Z,2.50
2022-09-23T05:58:19.015Z,2.70
2022-09-23T05:59:26.380Z,2.30
2022-09-23T06:00:34.374Z,2.50
2022-09-23T06:01:42.360Z,2.40
2022-09-23T06:02:50.672Z,2.30
2022-09-23T06:03:58.686Z,2.60
2022-09-23T06:05:05.883Z,2.40
2022-09-23T06:06:15.872Z,2.30
2022-09-23T06:07:23.403Z,2.50
2022-09-23T06:08:30.665Z,2.10
2022-09-23T06:09:38.351Z,2.70
2022-09-23T06:10:47.153Z,2.60
2022-09-23T06:11:57.468Z,2.40
2022-09-23T06:13:04.704Z,2.50
2022-09-23T06:14:14.145Z,2.30
2022-09-23T06:15:21.450Z,2.70
2022-09-23T06:16:28.840Z,2.30
2022-09-23T06:17:36.224Z,2.90
2022-09-23T06:18:44.271Z,2.50
2022-09-23T06:19:51.538Z,2.70
2022-09-23T06:21:01.751Z,2.80
2022-09-23T06:22:09.073Z,2.90
2022-09-23T06:23:16.743Z,2.90
2022-09-23T06:24:28.523Z,2.90
2022-09-23T06:25:42.230Z,2.70
2022-09-23T06:26:50.422Z,3.00
2022-09-23T06:27:58.502Z,3.00
2022-09-23T06:29:11.224Z,2.60
2022-09-23T06:30:24.874Z,2.70
2022-09-23T06:31:32.545Z,2.40
2022-09-23T06:32:40.482Z,2.40
2022-09-23T06:33:48.657Z,2.40
2022-09-23T06:34:56.576Z,2.50
2022-09-23T06:36:05.618Z,2.30
2022-09-23T06:37:19.910Z,2.70
2022-09-23T06:38:28.518Z,3.00
2022-09-23T06:39:36.590Z,2.40
2022-09-23T06:40:45.570Z,3.00
2022-09-23T06:41:53.015Z,2.80
2022-09-23T06:43:02.001Z,2.40
2022-09-23T06:44:09.527Z,2.70
2022-09-23T06:45:18.125Z,2.60
2022-09-23T06:46:26.076Z,2.60
2022-09-23T06:47:33.966Z,2.60
2022-09-23T06:48:45.924Z,3.00
2022-09-23T06:49:54.055Z,3.00
2022-09-23T06:51:03.619Z,2.60
2022-09-23T06:52:11.387Z,3.20
2022-09-23T06:53:18.938Z,2.60
2022-09-23T06:54:29.718Z,3.30
2022-09-23T06:55:37.376Z,2.80
2022-09-23T06:56:49.015Z,3.10
2022-09-23T06:57:58.059Z,3.20
2022-09-23T06:59:05.088Z,2.90
2022-09-23T07:00:13.286Z,3.10
2022-09-23T07:01:21.685Z,2.50
2022-09-23T07:02:29.856Z,2.90
2022-09-23T07:03:37.812Z,3.00
2022-09-23T07:04:45.505Z,3.10
2022-09-23T07:05:56.462Z,3.50
2022-09-23T07:07:04.144Z,2.80
2022-09-23T07:08:11.796Z,2.90
2022-09-23T07:09:19.358Z,3.40
2022-09-23T07:10:28.590Z,3.00
2022-09-23T07:11:36.309Z,3.50
2022-09-23T07:12:44.480Z,2.60
2022-09-23T07:13:52.127Z,2.80
2022-09-23T07:14:59.289Z,3.20
2022-09-23T07:16:06.778Z,2.60
2022-09-23T07:17:14.354Z,2.70
2022-09-23T07:18:22.132Z,2.70
2022-09-23T07:19:29.470Z,2.50
2022-09-23T07:20:37.652Z,2.90
2022-09-23T07:21:45.089Z,3.00
2022-09-23T07:22:55.356Z,3.00
2022-09-23T07:24:02.676Z,2.60
2022-09-23T07:25:11.109Z,2.90
2022-09-23T07:26:21.370Z,3.00
2022-09-23T07:27:29.156Z,2.60
2022-09-23T07:28:38.198Z,2.60
2022-09-23T07:29:48.801Z,3.10
2022-09-23T07:31:00.382Z,3.30
2022-09-23T07:32:13.635Z,3.00
2022-09-23T07:33:31.584Z,3.20
2022-09-23T07:34:40.024Z,2.80
2022-09-23T07:35:47.466Z,3.40
2022-09-23T07:36:56.195Z,3.50
2022-09-23T07:38:04.004Z,3.10
2022-09-23T07:39:12.725Z,2.80
2022-09-23T07:40:21.133Z,3.10
2022-09-23T07:41:30.211Z,2.80
2022-09-23T07:42:37.454Z,3.30
2022-09-23T07:43:45.555Z,2.90
2022-09-23T07:44:53.865Z,3.10
2022-09-23T07:46:03.988Z,2.80
2022-09-23T07:47:11.600Z,2.90
2022-09-23T07:48:22.019Z,2.80
2022-09-23T07:49:29.462Z,2.70
2022-09-23T07:50:36.674Z,2.60
2022-09-23T07:51:47.221Z,2.80
2022-09-23T07:52:54.425Z,2.90
2022-09-23T07:54:01.755Z,3.30
2022-09-23T07:55:09.202Z,3.30
2022-09-23T07:56:17.128Z,2.90
2022-09-23T07:57:26.615Z,2.50
2022-09-23T07:58:36.183Z,2.70
2022-09-23T07:59:45.914Z,3.00
2022-09-23T08:00:56.059Z,3.10
2022-09-23T08:02:03.893Z,2.90
2022-09-23T08:03:12.995Z,3.40
2022-09-23T08:04:26.733Z,3.10
2022-09-23T08:05:35.982Z,3.30
2022-09-23T08:06:46.464Z,3.30
2022-09-23T08:07:54.817Z,3.20
2022-09-23T08:09:03.976Z,3.30
2022-09-23T08:10:13.253Z,3.40
2022-09-23T08:11:21.639Z,3.10
2022-09-23T08:12:31.082Z,3.80
2022-09-23T08:13:39.945Z,3.40
2022-09-23T08:14:49.054Z,3.30
2022-09-23T08:15:57.972Z,4.00
2022-09-23T08:17:06.575Z,3.30
2022-09-23T08:18:14.557Z,3.10
2022-09-23T08:19:22.674Z,3.40
2022-09-23T08:20:49.432Z,3.60
2022-09-23T08:21:57.043Z,3.10
2022-09-23T08:23:04.681Z,3.40
2022-09-23T08:24:15.442Z,3.20
2022-09-23T08:25:24.147Z,3.40
2022-09-23T08:26:32.787Z,3.40
2022-09-23T08:27:41.003Z,3.30
2022-09-23T08:28:49.624Z,3.40
2022-09-23T08:29:57.003Z,3.20
2022-09-23T08:31:05.438Z,3.30
2022-09-23T08:32:13.106Z,3.10
2022-09-23T08:33:23.741Z,3.30
2022-09-23T08:34:31.671Z,3.20
2022-09-23T08:35:39.565Z,3.60
2022-09-23T08:36:47.567Z,3.80
2022-09-23T08:37:56.572Z,3.30
2022-09-23T08:39:03.809Z,3.10
2022-09-23T08:40:11.598Z,3.30
2022-09-23T08:41:31.997Z,3.20
2022-09-23T08:42:39.814Z,3.10
2022-09-23T08:43:52.270Z,3.50
2022-09-23T08:45:04.098Z,2.90
2022-09-23T08:46:13.691Z,2.90
2022-09-23T08:47:34.810Z,3.00
2022-09-23T08:48:46.484Z,3.20
2022-09-23T08:50:05.265Z,2.90
2022-09-23T08:51:17.601Z,3.00
2022-09-23T08:53:06.727Z,3.00
2022-09-23T08:54:14.630Z,3.90
2022-09-23T08:55:39.755Z,3.50
2022-09-23T08:56:48.260Z,2.90
2022-09-23T08:58:25.405Z,3.00
2022-09-23T08:59:39.821Z,3.20
2022-09-23T09:00:49.969Z,3.20
2022-09-23T09:02:07.995Z,2.80
2022-09-23T09:03:25.835Z,2.80
2022-09-23T09:04:44.125Z,3.10
2022-09-23T09:05:54.385Z,2.80
2022-09-23T09:08:43.290Z,3.00
2022-09-23T09:09:54.804Z,3.00
2022-09-23T09:11:02.259Z,2.90
2022-09-23T09:12:23.724Z,3.20
2022-09-23T09:13:36.395Z,2.90
2022-09-23T09:15:14.469Z,3.50
2022-09-23T09:16:48.280Z,2.90
2022-09-23T09:18:04.111Z,2.90
2022-09-23T09:19:35.293Z,3.00
2022-09-23T09:21:00.383Z,2.80
2022-09-23T09:22:08.317Z,3.00
2022-09-23T09:23:21.732Z,2.80
2022-09-23T09:24:36.285Z,2.80
2022-09-23T09:25:47.992Z,3.00
2022-09-23T09:26:55.816Z,3.20
2022-09-23T09:28:03.521Z,3.10
2022-09-23T09:29:34.438Z,2.80
2022-09-23T09:30:48.218Z,2.80
2022-09-23T09:31:58.861Z,3.00
2022-09-23T09:33:07.991Z,3.00
2022-09-23T09:34:42.755Z,2.80
2022-09-23T09:36:10.545Z,2.70
2022-09-23T09:37:35.007Z,2.80
2022-09-23T09:38:42.496Z,3.40
2022-09-23T09:39:50.649Z,2.40
2022-09-23T09:40:57.569Z,2.90
2022-09-23T09:42:05.595Z,3.00
2022-09-23T09:43:13.227Z,2.90
2022-09-23T09:45:00.956Z,3.00
2022-09-23T09:46:30.544Z,3.00
2022-09-23T09:47:59.443Z,2.30
2022-09-23T09:49:31.306Z,2.60
2022-09-23T09:50:54.720Z,2.70
2022-09-23T09:52:27.337Z,2.80
2022-09-23T09:53:37.068Z,3.00
2022-09-23T09:54:45.662Z,3.20
2022-09-23T09:56:32.731Z,2.70
2022-09-23T09:58:03.260Z,2.90
2022-09-23T09:59:17.240Z,2.50
2022-09-23T10:00:26.875Z,2.70
2022-09-23T10:01:35.970Z,2.70
2022-09-23T10:02:43.558Z,2.80
2022-09-23T10:03:54.354Z,2.90
2022-09-23T10:05:08.294Z,2.90
2022-09-23T10:06:22.130Z,2.90
2022-09-23T10:07:32.023Z,2.80
2022-09-23T10:08:40.381Z,2.90
2022-09-23T10:09:52.284Z,2.80
2022-09-23T10:11:16.733Z,3.20
2022-09-23T10:12:25.956Z,2.90
2022-09-23T10:13:33.833Z,3.10
2022-09-23T10:14:41.777Z,2.90
2022-09-23T10:15:49.594Z,2.70
2022-09-23T10:17:06.941Z,2.90
2022-09-23T10:18:39.549Z,2.90
2022-09-23T10:19:49.733Z,2.60
2022-09-23T10:21:10.113Z,2.90
2022-09-23T10:22:27.759Z,3.10
2022-09-23T10:23:35.819Z,2.60
2022-09-23T10:24:43.626Z,3.10
2022-09-23T10:26:01.831Z,3.30
2022-09-23T10:27:10.653Z,3.00
2022-09-23T10:28:44.538Z,3.00
2022-09-23T10:29:52.505Z,3.00
2022-09-23T10:31:30.550Z,3.00
2022-09-23T10:32:46.357Z,3.30
2022-09-23T10:34:02.335Z,4.00
2022-09-23T10:35:15.278Z,3.60
2022-09-23T10:36:22.944Z,3.50
2022-09-23T10:37:43.451Z,3.30
2022-09-23T10:38:52.340Z,3.50
2022-09-23T10:40:18.198Z,3.40
2022-09-23T10:41:57.990Z,2.80
2022-09-23T10:43:32.783Z,2.90
2022-09-23T10:45:28.522Z,3.00
2022-09-23T10:46:41.434Z,2.80
2022-09-23T10:47:59.542Z,3.80
2022-09-23T10:49:14.047Z,4.20
2022-09-23T10:50:40.119Z,3.00
2022-09-23T10:52:12.494Z,3.70
2022-09-23T10:53:27.985Z,2.90
2022-09-23T10:54:44.927Z,3.50
2022-09-23T10:55:55.678Z,3.40
2022-09-23T10:57:44.500Z,2.90
2022-09-23T10:59:16.624Z,3.80
2022-09-23T11:01:00.896Z,3.60
2022-09-23T11:02:25.365Z,3.50
2022-09-23T11:04:03.068Z,3.50
2022-09-23T11:05:13.751Z,3.60
2022-09-23T11:06:45.347Z,3.60
2022-09-23T11:08:09.431Z,3.90
2022-09-23T11:09:44.747Z,3.80
2022-09-23T11:10:57.621Z,3.40
2022-09-23T11:12:23.425Z,3.70
2022-09-23T11:13:54.875Z,3.60
2022-09-23T11:15:06.334Z,3.80
2022-09-23T11:16:27.521Z,4.10
2022-09-23T11:17:53.084Z,3.80
2022-09-23T11:19:24.675Z,3.60
2022-09-23T11:20:56.798Z,3.50
2022-09-23T11:22:23.277Z,4.50
2022-09-23T11:23:50.068Z,3.90
2022-09-23T11:25:48.851Z,4.20
2022-09-23T11:27:14.234Z,4.10
2022-09-23T11:28:35.763Z,4.50
2022-09-23T11:29:50.207Z,4.00
2022-09-23T11:31:13.841Z,3.80
2022-09-23T11:32:44.020Z,3.50
2022-09-23T11:34:17.753Z,3.60
2022-09-23T11:36:10.331Z,3.70
2022-09-23T11:37:22.729Z,3.90
2022-09-23T11:38:42.355Z,4.00
2022-09-23T11:39:59.470Z,3.30
2022-09-23T11:41:30.546Z,3.60
2022-09-23T11:42:42.131Z,4.60
2022-09-23T11:43:53.744Z,4.10
2022-09-23T11:45:09.696Z,4.30
2022-09-23T11:46:37.608Z,4.40
2022-09-23T11:47:54.293Z,4.50
2022-09-23T11:49:18.495Z,4.40
2022-09-23T11:50:46.804Z,4.60
2022-09-23T11:52:11.297Z,4.30
2022-09-23T11:53:47.960Z,4.70
2022-09-23T11:55:27.764Z,4.00
2022-09-23T11:56:42.394Z,4.20
2022-09-23T11:58:02.869Z,4.00
2022-09-23T11:59:40.013Z,4.50
2022-09-23T12:01:00.508Z,4.70
2022-09-23T12:02:30.305Z,5.00
2022-09-23T12:04:17.620Z,4.20
2022-09-23T12:05:34.614Z,5.20
2022-09-23T12:06:50.361Z,4.80
2022-09-23T12:08:07.831Z,4.40
2022-09-23T12:09:58.529Z,4.60
2022-09-23T12:11:27.681Z,4.70
2022-09-23T12:13:02.901Z,4.10
2022-09-23T12:14:13.370Z,4.20
2022-09-23T12:15:47.189Z,4.40
2022-09-23T12:17:35.812Z,4.60
2022-09-23T12:18:50.827Z,4.50
2022-09-23T12:20:34.793Z,4.50
2022-09-23T12:22:34.446Z,5.60
2022-09-23T12:24:19.194Z,4.90
2022-09-23T12:25:48.437Z,4.60
2022-09-23T12:26:58.418Z,3.80
2022-09-23T12:28:08.314Z,4.40
2022-09-23T12:29:15.971Z,4.00
2022-09-23T12:30:28.575Z,4.60
2022-09-23T12:31:41.121Z,4.60
2022-09-23T12:32:50.891Z,4.20
2022-09-23T12:33:58.600Z,4.20
2022-09-23T12:35:06.048Z,5.30
2022-09-23T12:36:13.767Z,4.90
2022-09-23T12:37:35.188Z,4.60
2022-09-23T12:39:16.726Z,5.10
2022-09-23T12:40:33.162Z,4.50
2022-09-23T12:41:44.015Z,4.40
2022-09-23T12:42:52.456Z,4.50
2022-09-23T12:44:16.399Z,4.90
2022-09-23T12:45:36.403Z,4.10
2022-09-23T12:46:47.416Z,4.50
2022-09-23T12:47:54.863Z,4.50
2022-09-23T12:49:03.124Z,4.10
2022-09-23T12:50:47.052Z,4.10
2022-09-23T12:52:13.053Z,4.20
2022-09-23T12:53:38.842Z,4.30
2022-09-23T12:54:47.280Z,4.80
2022-09-23T12:55:55.738Z,4.60
2022-09-23T12:57:03.272Z,5.30
2022-09-23T12:58:45.656Z,4.90
2022-09-23T12:59:58.592Z,4.50
2022-09-23T13:01:10.247Z,4.30
2022-09-23T13:02:29.716Z,4.30
2022-09-23T13:03:56.021Z,4.70
2022-09-23T13:05:34.211Z,4.90
2022-09-23T13:06:50.405Z,4.40
2022-09-23T13:08:02.412Z,5.80
2022-09-23T13:09:26.440Z,10.10
2022-09-23T13:10:49.650Z,7.00
2022-09-23T13:12:01.412Z,6.60
2022-09-23T13:13:08.843Z,7.10
2022-09-23T13:14:21.951Z,6.00
2022-09-23T13:15:35.261Z,5.80
2022-09-23T13:16:47.182Z,9.90
2022-09-23T13:17:54.856Z,6.40
2022-09-23T13:19:05.820Z,6.00
2022-09-23T13:20:23.314Z,6.20
2022-09-23T13:21:47.334Z,5.60
2022-09-23T13:23:02.068Z,5.30
2022-09-23T13:24:16.659Z,5.00
2022-09-23T13:25:30.252Z,5.20
2022-09-23T13:26:38.757Z,4.60
2022-09-23T13:27:47.564Z,4.60
2022-09-23T13:28:58.985Z,4.90
2022-09-23T13:30:09.590Z,5.90
2022-09-23T13:31:18.448Z,5.20
2022-09-23T13:32:35.228Z,5.80
2022-09-23T13:34:02.092Z,4.40
2022-09-23T13:35:17.413Z,4.60
2022-09-23T13:36:25.393Z,4.20
2022-09-23T13:37:47.648Z,4.70
2022-09-23T13:38:55.384Z,4.40
2022-09-23T13:40:25.938Z,4.80
2022-09-23T13:41:34.750Z,4.30
2022-09-23T13:42:42.405Z,4.30
2022-09-23T13:44:00.221Z,4.40
2022-09-23T13:45:08.007Z,5.20
2022-09-23T13:46:25.519Z,5.30
2022-09-23T13:47:33.493Z,4.60
2022-09-23T13:48:41.067Z,5.60
2022-09-23T13:49:49.619Z,5.80
2022-09-23T13:50:57.601Z,5.00
2022-09-23T13:52:05.204Z,4.30
2022-09-23T13:53:13.626Z,4.40
2022-09-23T13:54:32.429Z,4.20
2022-09-23T13:55:40.929Z,4.10
2022-09-23T13:56:50.737Z,4.40
2022-09-23T13:58:06.798Z,4.10
2022-09-23T13:59:40.525Z,4.50
2022-09-23T14:00:49.933Z,4.40
2022-09-23T14:02:14.667Z,4.30
2022-09-23T14:03:33.780Z,4.90
2022-09-23T14:04:46.187Z,5.00
2022-09-23T14:05:54.179Z,4.70
2022-09-23T14:07:01.783Z,5.50
2022-09-23T14:08:10.068Z,4.40
2022-09-23T14:09:18.358Z,4.80
2022-09-23T14:10:28.604Z,4.60
2022-09-23T14:11:36.711Z,5.10
2022-09-23T14:12:48.080Z,4.50
2022-09-23T14:13:59.295Z,4.40
2022-09-23T14:15:10.387Z,4.60
2022-09-23T14:16:17.801Z,4.60
2022-09-23T14:17:25.405Z,4.50
2022-09-23T14:18:38.169Z,4.60
2022-09-23T14:19:45.377Z,4.50
2022-09-23T14:20:52.554Z,3.90
2022-09-23T14:22:00.829Z,4.30
2022-09-23T14:23:09.304Z,4.80
2022-09-23T14:24:23.109Z,5.10
2022-09-23T14:25:30.422Z,4.80
2022-09-23T14:26:37.688Z,4.80
2022-09-23T14:27:45.014Z,5.00
2022-09-23T14:28:52.172Z,5.20
2022-09-23T14:29:59.275Z,5.00
2022-09-23T14:31:06.659Z,4.40
2022-09-23T14:32:15.577Z,4.90
2022-09-23T14:33:49.060Z,4.70
2022-09-23T14:35:02.389Z,5.00
2022-09-23T14:36:36.667Z,4.70
2022-09-23T14:38:03.072Z,4.50
2022-09-23T14:39:12.257Z,4.80
2022-09-23T14:40:29.856Z,4.90
2022-09-23T14:41:41.566Z,4.70
2022-09-23T14:42:58.800Z,4.80
2022-09-23T14:44:06.188Z,4.60
2022-09-23T14:45:19.101Z,4.30
2022-09-23T14:46:29.787Z,5.20
2022-09-23T14:47:37.578Z,5.10
2022-09-23T14:48:44.846Z,5.10
2022-09-23T14:50:12.158Z,4.60
2022-09-23T14:51:19.356Z,5.10
2022-09-23T14:52:26.703Z,5.10
2022-09-23T14:53:44.753Z,5.40
2022-09-23T14:54:52.722Z,4.80
2022-09-23T14:56:23.276Z,5.20
2022-09-23T14:57:33.774Z,4.60
2022-09-23T14:58:52.617Z,4.70
2022-09-23T15:00:11.083Z,5.10
2022-09-23T15:01:28.916Z,4.90
2022-09-23T15:02:37.829Z,5.00
2022-09-23T15:03:51.479Z,5.10
2022-09-23T15:05:18.312Z,5.20
2022-09-23T15:06:25.583Z,4.90
2022-09-23T15:07:32.757Z,5.40
2022-09-23T15:08:40.683Z,4.90
2022-09-23T15:09:47.926Z,5.10
2022-09-23T15:10:55.325Z,5.90
2022-09-23T15:12:03.980Z,5.20
2022-09-23T15:13:14.841Z,4.80
2022-09-23T15:14:37.324Z,5.30
2022-09-23T15:15:46.751Z,5.90
2022-09-23T15:16:53.953Z,5.60
2022-09-23T15:18:15.370Z,5.90
2022-09-23T15:19:22.675Z,5.50
2022-09-23T15:20:29.871Z,6.40
2022-09-23T15:21:42.302Z,6.10
2022-09-23T15:22:55.019Z,5.60
2022-09-23T15:24:02.221Z,5.00
2022-09-23T15:25:31.570Z,5.80
2022-09-23T15:26:48.473Z,5.30
2022-09-23T15:27:59.158Z,4.80
2022-09-23T15:29:08.948Z,5.10
2022-09-23T15:30:18.238Z,5.40
2022-09-23T15:31:27.675Z,5.20
2022-09-23T15:32:35.023Z,5.00
2022-09-23T15:33:42.088Z,5.30
2022-09-23T15:34:51.604Z,5.40
2022-09-23T15:35:58.895Z,5.30
2022-09-23T15:37:06.490Z,5.30
2022-09-23T15:38:13.453Z,4.60
2022-09-23T15:39:20.439Z,4.70
2022-09-23T15:40:32.064Z,4.30
2022-09-23T15:41:39.372Z,4.60
2022-09-23T15:42:54.118Z,4.80
2022-09-23T15:44:14.986Z,4.60
2022-09-23T15:45:33.189Z,5.10
2022-09-23T15:46:41.724Z,4.70
2022-09-23T15:47:50.821Z,4.30
2022-09-23T15:49:11.050Z,4.40
2022-09-23T15:50:18.752Z,4.20
2022-09-23T15:51:26.316Z,4.90
2022-09-23T15:52:38.275Z,4.70
2022-09-23T15:53:45.453Z,5.00
2022-09-23T15:54:53.328Z,4.60
2022-09-23T15:56:00.740Z,5.20
2022-09-23T15:57:08.053Z,5.20
2022-09-23T15:58:15.172Z,5.00
2022-09-23T15:59:22.898Z,4.70
2022-09-23T16:00:30.278Z,4.70
2022-09-23T16:01:37.960Z,4.50
2022-09-23T16:02:48.670Z,4.00
2022-09-23T16:03:56.954Z,4.60
2022-09-23T16:05:03.945Z,4.20
2022-09-23T16:06:13.311Z,4.80
2022-09-23T16:07:21.131Z,4.00
2022-09-23T16:08:28.757Z,4.40
2022-09-23T16:09:36.122Z,4.60
2022-09-23T16:10:46.290Z,4.00
2022-09-23T16:11:53.514Z,4.00
2022-09-23T16:13:03.750Z,4.30
2022-09-23T16:14:14.964Z,4.40
2022-09-23T16:15:22.906Z,4.30
2022-09-23T16:16:30.214Z,3.60
2022-09-23T16:17:38.041Z,3.80
2022-09-23T16:18:45.456Z,4.20
2022-09-23T16:19:53.029Z,3.90
2022-09-23T16:21:00.836Z,4.00
2022-09-23T16:22:08.212Z,3.60
2022-09-23T16:23:36.286Z,3.40
2022-09-23T16:24:43.777Z,3.30
2022-09-23T16:25:51.701Z,3.40
2022-09-23T16:27:01.255Z,3.50
2022-09-23T16:28:08.777Z,3.80